Eureka, South Dakota
Current Conditions -  °F | °C
As of 3:52 AM on Tuesday 21 Oct 2014 (Local Time) from KMBG Reporting Station
Clear Clear  
Wind Chill: 55°   Ceiling: Unl
Heat Index: 55°   Visibility: 10mi
Dew Point: 37°   Wind: 14mph
Humidity: 51%   Direction: 140°SE
Pressure: 29.85"   Gusts: NA
Location:  45.77°N, 99.62°W
Report Text: KMBG 210852Z AUTO 14012KT 10SM CLR 13/03 A2985 RMK AO2 SLP104 T01280028 58013
Loading
Personal Weather Stations






























Interactive Weather Map
Tropical Storm Tracking
New forecast layout! Learn more

10-Day Weather Forecast

Advertisements
Track Severe Weather on mobile